Flight Track Log - Related Links

Times and Time Zones

All times are in EDT time to prevent confusion due to time zone crossing. See the VIR19 flight status page for this flight to view local times or setup timezone preferences in your user account.

Time Position Orientation Groundspeed Altitude Reporting Facility
EDT Latitude Longitude Course Direction KTS MPH feet Rate Location/Type
Fri 07:28:20 AM 51.4651 -0.4995 272° West 173 199 600  Level FlightAware ADS-B
Fri 07:28:34 AM 51.4651 -0.5177 269° West 179 206 1,000 1,765 Climbing FlightAware ADS-B
Fri 07:28:37 AM 51.4650 -0.5202 268° West 178 205 1,100 1,800 Climbing FlightAware ADS-B (EGLF / FAB)
Fri 07:28:44 AM 51.4648 -0.5309 268° West 180 207 1,300 2,000 Climbing FlightAware ADS-B
Fri 07:28:49 AM 51.4645 -0.5376 268° West 182 209 1,500 2,182 Climbing FlightAware ADS-B
Fri 07:28:55 AM 51.4644 -0.5430 268° West 186 214 1,700 1,800 Climbing FlightAware ADS-B (EGLF / FAB)
Fri 07:28:59 AM 51.4642 -0.5527 268° West 190 219 1,800 667 Climbing FlightAware ADS-B
Fri 07:29:04 AM 51.4641 -0.5586 268° West 200 230 1,800 545 Level FlightAware ADS-B
Fri 07:29:10 AM 51.4639 -0.5691 269° West 209 241 1,900 1,000 Climbing FlightAware ADS-B
Fri 07:29:16 AM 51.4638 -0.5772 269° West 212 244 2,000 1,200 Climbing FlightAware ADS-B
Fri 07:29:20 AM 51.4638 -0.5820 270° West 220 253 2,100 1,333 Climbing FlightAware ADS-B
Fri 07:29:25 AM 51.4637 -0.5935 270° West 225 259 2,200 857 Climbing FlightAware ADS-B
Fri 07:29:34 AM 51.4638 -0.6072 270° West 233 268 2,300 1,000 Climbing FlightAware ADS-B
Fri 07:29:37 AM 51.4637 -0.6107 269° West 234 269 2,400 1,500 Climbing FlightAware ADS-B (EGLF / FAB)
Fri 07:29:38 AM 51.4636 -0.6141 268° West 236 272 2,400 1,000 Level FlightAware ADS-B
Fri 07:29:43 AM 51.4631 -0.6247 264° West 241 277 2,500 1,333 Climbing FlightAware ADS-B
Fri 07:29:47 AM 51.4627 -0.6301 263° West 243 280 2,600 1,200 Climbing FlightAware ADS-B (EGLF / FAB)
Fri 07:29:48 AM 51.4622 -0.6336 260° West 246 283 2,600  Level FlightAware ADS-B
Fri 07:29:49 AM 51.4622 -0.6336 260° West 247 284 2,600 1,714 Level FlightAware ADS-B
Fri 07:29:55 AM 51.4603 -0.6464 255° West 253 291 2,800 2,000 Climbing FlightAware ADS-B
Fri 07:30:04 AM 51.4575 -0.6627 256° West 255 293 3,100 2,308 Climbing FlightAware ADS-B
Fri 07:30:08 AM 51.4565 -0.6701 258° West 257 296 3,300 2,000 Climbing FlightAware ADS-B
Fri 07:30:13 AM 51.4557 -0.6777 261° West 260 299 3,400 1,636 Climbing FlightAware ADS-B
Fri 07:30:19 AM 51.4550 -0.6913 266° West 266 306 3,600 1,800 Climbing FlightAware ADS-B
Fri 07:30:23 AM 51.4548 -0.6993 269° West 270 311 3,700 2,000 Climbing FlightAware ADS-B
Fri 07:30:34 AM 51.4549 -0.7194 271° West 277 319 4,100 2,000 Climbing FlightAware ADS-B
Fri 07:30:38 AM 51.4550 -0.7298 270° West 278 320 4,200 2,308 Climbing FlightAware ADS-B
Fri 07:30:47 AM 51.4550 -0.7402 269° West 279 321 4,600 2,727 Climbing FlightAware ADS-B (EGLF / FAB)
Fri 07:30:49 AM 51.4548 -0.7504 269° West 280 322 4,700 2,571 Climbing FlightAware ADS-B
Fri 07:30:54 AM 51.4547 -0.7608 269° West 280 322 4,900 2,769 Climbing FlightAware ADS-B
Fri 07:31:02 AM 51.4546 -0.7775 269° West 283 326 5,300 2,571 Climbing FlightAware ADS-B (EGHH / BOH)
Fri 07:31:08 AM 51.4545 -0.7903 269° West 286 329 5,500 2,000 Climbing FlightAware ADS-B
Fri 07:31:11 AM 51.4546 -0.7987 272° West 287 330 5,600 2,667 Climbing FlightAware ADS-B
Fri 07:31:17 AM 51.4554 -0.8092 278° West 288 331 5,900 2,571 Climbing FlightAware ADS-B
Fri 07:31:18 AM 51.4556 -0.8114 279° West 288 331 5,900 2,000 Level FlightAware ADS-B (EGLF / FAB)
Fri 07:31:23 AM 51.4572 -0.8240 283° West 291 335 6,100 2,625 Climbing FlightAware ADS-B
Fri 07:31:34 AM 51.4609 -0.8471 284° West 292 336 6,600 3,000 Climbing FlightAware ADS-B
Fri 07:31:39 AM 51.4626 -0.8574 284° West 292 336 6,900 3,000 Climbing FlightAware ADS-B
Fri 07:31:46 AM 51.4646 -0.8701 284° West 293 337 7,200 2,800 Climbing FlightAware ADS-B (EGLF / FAB)
Fri 07:31:54 AM 51.4677 -0.8892 284° West 294 338 7,600 2,471 Climbing FlightAware ADS-B
Fri 07:32:03 AM 51.4694 -0.8996 284° West 296 341 7,900 2,400 Climbing FlightAware ADS-B
Fri 07:32:09 AM 51.4725 -0.9209 283° West 296 341 8,200 2,667 Climbing FlightAware ADS-B
Fri 07:32:21 AM 51.4762 -0.9467 283° West 297 342 8,700 2,625 Climbing FlightAware ADS-B (EGDJ / UPV)
Fri 07:32:25 AM 51.4772 -0.9531 282° West 298 343 8,900 3,600 Climbing FlightAware ADS-B
Fri 07:32:26 AM 51.4777 -0.9574 283° West 298 343 9,000 2,625 Climbing FlightAware ADS-B (EGHA)
Fri 07:32:41 AM 51.4822 -0.9897 283° West 298 343 9,600 2,400 Climbing FlightAware ADS-B
Fri 07:32:46 AM 51.4835 -0.9982 283° West 299 344 9,800 2,308 Climbing FlightAware ADS-B (EGKK / LGW)
Fri 07:32:54 AM 51.4862 -1.0156 284° West 300 345 10,100 1,909 Climbing FlightAware ADS-B (EGKK / LGW)
Fri 07:33:08 AM 51.4908 -1.0462 282° West 305 351 10,500 1,579 Climbing FlightAware ADS-B (EGHH / BOH)
Fri 07:33:13 AM 51.4926 -1.0572 284° West 310 357 10,600 1,333 Climbing FlightAware ADS-B
Fri 07:33:17 AM 51.4943 -1.0684 283° West 313 360 10,700 1,200 Climbing FlightAware ADS-B (EGHH / BOH)
Fri 07:33:43 AM 51.5038 -1.1296 284° West 337 388 11,200 1,200 Climbing FlightAware ADS-B
Fri 07:33:47 AM 51.5047 -1.1346 284° West 338 389 11,300 1,500 Climbing FlightAware ADS-B (EGLF / FAB)
Fri 07:33:55 AM 51.5086 -1.1589 286° West 346 398 11,500 1,091 Climbing FlightAware ADS-B
Fri 07:33:58 AM 51.5097 -1.1639 287° West 350 403 11,500 1,000 Level FlightAware ADS-B
Fri 07:34:01 AM 51.5116 -1.1738 288° West 352 405 11,600 857 Climbing FlightAware ADS-B
Fri 07:34:05 AM 51.5129 -1.1813 288° West 356 410 11,600 1,000 Level FlightAware ADS-B (EGKK / LGW)
Fri 07:34:19 AM 51.5208 -1.2169 288° West 365 420 11,900 1,111 Climbing FlightAware ADS-B (EGHH / BOH)
Fri 07:34:32 AM 51.5283 -1.2510 290° West 377 434 12,100 1,355 Climbing FlightAware ADS-B
Fri 07:34:50 AM 51.5392 -1.2991 290° West 388 447 12,600 1,800 Climbing FlightAware ADS-B
Fri 07:35:02 AM 51.5470 -1.3342 290° West 391 450 13,000 2,000 Climbing FlightAware ADS-B
Fri 07:35:23 AM 51.5596 -1.3863 290° West 396 456 13,700 2,200 Climbing FlightAware ADS-B
Fri 07:35:32 AM 51.5663 -1.4168 290° West 398 458 14,100 2,400 Climbing FlightAware ADS-B
Fri 07:35:33 AM 51.5669 -1.4195 289° West 395 455 14,100 2,000 Level FlightAware ADS-B (EGDJ / UPV)
Fri 07:35:38 AM 51.5688 -1.4279 290° West 399 459 14,300 2,077 Climbing FlightAware ADS-B
Fri 07:35:59 AM 51.5836 -1.4922 289° West 400 460 15,000 2,077 Climbing FlightAware ADS-B (EGHH / BOH)
Fri 07:36:04 AM 51.5869 -1.5062 290° West 404 465 15,200 -14,143 Climbing FlightAware ADS-B
Fri 07:36:13 AM 51.5923 -1.5288 289° West 403 464 11,700 2,000 Descending FlightAware ADS-B (EGHI / SOU)
Fri 07:36:25 AM 51.6002 -1.5655 289° West 404 465 15,900 12,273 Climbing FlightAware ADS-B (EGDJ / UPV)
Fri 07:36:35 AM 51.6064 -1.5913 290° West 409 471 16,200 1,935 Climbing FlightAware ADS-B
Fri 07:36:56 AM 51.6205 -1.6542 290° West 413 475 16,900 2,129 Climbing FlightAware ADS-B (EGHS)
Fri 07:37:06 AM 51.6267 -1.6804 290° West 413 475 17,300 2,500 Climbing FlightAware ADS-B
Fri 07:37:08 AM 51.6284 -1.6889 290° West 414 476 17,400 1,846 Climbing FlightAware ADS-B (EGHS)
Fri 07:37:19 AM 51.6353 -1.7180 289° West 411 473 17,700 1,875 Climbing FlightAware ADS-B
Fri 07:37:24 AM 51.6385 -1.7324 289° West 412 474 17,900 1,895 Climbing FlightAware ADS-B (EGDJ / UPV)
Fri 07:37:38 AM 51.6476 -1.7731 290° West 418 481 18,300 1,800 Climbing FlightAware ADS-B
Fri 07:37:44 AM 51.6486 -1.7791 290° West 420 483 18,500 1,800 Climbing FlightAware ADS-B (KALB)
Fri 07:37:48 AM 51.6525 -1.7967 290° West 420 483 18,600 2,667 Climbing FlightAware ADS-B
Fri 07:37:53 AM 51.6566 -1.8142 290° West 422 486 18,900 1,800 Climbing FlightAware ADS-B
Fri 07:38:08 AM 51.6674 -1.8616 290° West 424 488 19,200 1,625 Climbing FlightAware ADS-B
Fri 07:38:41 AM 51.6896 -1.9603 290° West 429 494 20,200 1,886 Climbing FlightAware ADS-B (EGDJ / UPV)
Fri 07:38:43 AM 51.6910 -1.9691 290° West 429 494 20,300 1,818 Climbing FlightAware ADS-B
Fri 07:39:14 AM 51.7124 -2.0631 290° West 434 499 21,200 1,688 Climbing FlightAware ADS-B
Fri 07:39:15 AM 51.7128 -2.0663 290° West 434 499 21,200 1,548 Level FlightAware ADS-B
Fri 07:39:45 AM 51.7331 -2.1585 290° West 442 509 22,000 1,645 Climbing FlightAware ADS-B
Fri 07:40:17 AM 51.7549 -2.2548 290° West 445 512 22,900 1,714 Climbing FlightAware ADS-B
Fri 07:40:20 AM 51.7570 -2.2643 290° West 446 513 23,000 1,667 Climbing FlightAware ADS-B (LERS / REU)
Fri 07:40:35 AM 51.7679 -2.3145 290° West 449 517 23,400 1,650 Climbing FlightAware ADS-B
Fri 07:41:00 AM 51.7851 -2.3938 289° West 448 516 24,100 1,600 Climbing FlightAware ADS-B
Fri 07:41:05 AM 51.7882 -2.4065 289° West 454 522 24,200 1,500 Climbing FlightAware ADS-B
Fri 07:41:32 AM 51.8069 -2.4931 289° West 456 525 24,900 1,941 Climbing FlightAware ADS-B
Fri 07:41:39 AM 51.8110 -2.5156 289° West 456 525 25,300 1,750 Climbing FlightAware ADS-B (EGLF / FAB)
Fri 07:41:56 AM 51.8215 -2.5749 289° West 448 516 25,600 1,304 Climbing FlightAware ADS-B
Fri 07:42:02 AM 51.8248 -2.5950 283° West 459 528 25,800 1,333 Climbing FlightAware ADS-B
Fri 07:42:05 AM 51.8263 -2.6051 283° West 462 532 25,800 1,273 Level FlightAware ADS-B
Fri 07:42:35 AM 51.8403 -2.7061 282° West 466 536 26,500 1,463 Climbing FlightAware ADS-B
Fri 07:42:46 AM 51.8454 -2.7436 283° West 466 536 26,800 1,950 Climbing FlightAware ADS-B (EGHA)
Fri 07:43:15 AM 51.8581 -2.8384 282° West 462 532 27,800 2,063 Climbing FlightAware ADS-B
Fri 07:43:18 AM 51.8593 -2.8487 282° West 461 531 27,900 2,000 Climbing FlightAware ADS-B
Fri 07:43:45 AM 51.8718 -2.9423 282° West 458 527 28,800 2,000 Climbing FlightAware ADS-B
Fri 07:43:48 AM 51.8726 -2.9492 282° West 457 526 28,900 2,000 Climbing FlightAware ADS-B
Fri 07:44:06 AM 51.8808 -3.0122 281° West 453 521 29,500 1,800 Climbing FlightAware ADS-B
Fri 07:44:18 AM 51.8862 -3.0521 282° West 453 521 29,800 1,667 Climbing FlightAware ADS-B
Fri 07:44:24 AM 51.8889 -3.0722 281° West 450 518 30,000 2,000 Climbing FlightAware ADS-B (EGHH / BOH)
Fri 07:44:30 AM 51.8910 -3.0884 281° West 450 518 30,200 1,714 Climbing FlightAware ADS-B
Fri 07:44:52 AM 51.9008 -3.1641 282° West 450 518 30,800 1,655 Climbing FlightAware ADS-B
Fri 07:44:59 AM 51.9038 -3.1871 282° West 449 517 31,000 1,304 Climbing FlightAware ADS-B (EGCW)
Fri 07:45:15 AM 51.9104 -3.2365 281° West 446 513 31,300 1,250 Climbing FlightAware ADS-B
Fri 07:45:23 AM 51.9142 -3.2658 281° West 445 512 31,500 1,500 Climbing FlightAware ADS-B
Fri 07:45:27 AM 51.9156 -3.2789 282° West 447 514 31,600 2,400 Climbing FlightAware ADS-B
Fri 07:45:28 AM 51.9161 -3.2823 282° West 446 513 31,700 1,500 Climbing FlightAware ADS-B (EGDX / DGX)
Fri 07:45:35 AM 51.9190 -3.3016 281° West 444 511 31,800 1,059 Climbing FlightAware ADS-B
Fri 07:45:45 AM 51.9234 -3.3376 281° West 444 511 32,000 857 Climbing FlightAware ADS-B
Fri 07:45:49 AM 51.9249 -3.3505 281° West 444 511 32,000  Level FlightAware ADS-B
Fri 07:45:54 AM 51.9271 -3.3670 282° West 445 512 32,000  Level FlightAware ADS-B (EGCW)
Fri 07:46:13 AM 51.9349 -3.4255 281° West 443 510 32,000  Level FlightAware ADS-B (EGHH / BOH)
Fri 07:46:24 AM 51.9397 -3.4645 282° West 444 511 32,000  Level FlightAware ADS-B
Fri 07:46:35 AM 51.9441 -3.5003 281° West 442 509 32,000  Level FlightAware ADS-B (EGHH / BOH)
Fri 07:46:45 AM 51.9482 -3.5296 281° West 441 507 32,000  Level FlightAware ADS-B (EGHH / BOH)
Fri 07:46:54 AM 51.9520 -3.5587 281° West 441 507 32,000  Level FlightAware ADS-B (EGNR / CEG)
Fri 07:47:10 AM 51.9586 -3.6105 281° West 441 507 32,000  Level FlightAware ADS-B
Fri 07:47:13 AM 51.9597 -3.6202 281° West 440 506 32,000  Level FlightAware ADS-B (EGHH / BOH)
Fri 07:47:19 AM 51.9623 -3.6428 281° West 440 506 32,000  Level FlightAware ADS-B
Fri 07:47:24 AM 51.9645 -3.6591 281° West 440 506 32,000  Level FlightAware ADS-B (EGHH / BOH)
Fri 07:47:33 AM 51.9680 -3.6849 281° West 440 506 32,000  Level FlightAware ADS-B (EGHH / BOH)
Fri 07:47:49 AM 51.9744 -3.7366 281° West 439 505 32,000  Level FlightAware ADS-B (EGDX / DGX)
Fri 07:47:58 AM 51.9780 -3.7658 282° West 441 507 32,000  Level FlightAware ADS-B (EGDX / DGX)
Fri 07:48:12 AM 51.9837 -3.8111 280° West 438 504 32,000  Level FlightAware ADS-B
Fri 07:48:21 AM 51.9873 -3.8400 280° West 438 504 32,000  Level FlightAware ADS-B
Fri 07:48:38 AM 51.9941 -3.8946 280° West 438 504 32,000  Level FlightAware ADS-B (EGHH / BOH)
Fri 07:49:09 AM 52.0064 -3.9945 281° West 437 503 32,000  Level FlightAware ADS-B (EGHH / BOH)
Fri 07:49:42 AM 52.0190 -4.0971 281° West 437 503 32,000  Level FlightAware ADS-B (EGCW)
Fri 07:49:49 AM 52.0222 -4.1230 281° West 437 503 32,000  Level FlightAware ADS-B (EGDX / DGX)
Fri 07:49:54 AM 52.0244 -4.1389 281° West 436 502 32,000  Level FlightAware ADS-B
Fri 07:50:02 AM 52.0283 -4.1676 284° West 437 503 32,000  Level FlightAware ADS-B
Fri 07:50:10 AM 52.0314 -4.1868 283° West 436 502 32,000  Level FlightAware ADS-B (EGNR / CEG)
Fri 07:50:28 AM 52.0419 -4.2466 286° West 437 503 32,000  Level FlightAware ADS-B (EGDX / DGX)
Fri 07:51:03 AM 52.0606 -4.3605 285° West 438 504 32,000  Level FlightAware ADS-B (EGCW)
Fri 07:51:25 AM 52.0717 -4.4271 285° West 438 504 32,000  Level FlightAware ADS-B (EPBY / BZG)
Fri 07:52:32 AM 52.1043 -4.6438 283° West 449 517 32,000  Level FlightAware ADS-B
Fri 07:52:48 AM 52.1124 -4.6995 282° West 450 518 32,000  Level FlightAware ADS-B
Fri 07:53:19 AM 52.1269 -4.8025 283° West 455 524 32,000  Level FlightAware ADS-B (EGCW)
Fri 07:53:49 AM 52.1400 -4.8964 283° West 459 528 32,000  Level FlightAware ADS-B (EGYM / MRH)
Fri 07:54:19 AM 52.1540 -4.9978 283° West 462 532 32,000  Level FlightAware ADS-B (EPBY / BZG)
Fri 07:54:54 AM 52.1689 -5.1066 282° West 466 536 32,000  Level FlightAware ADS-B (EGYM / MRH)
Fri 07:55:11 AM 52.1792 -5.1822 283° West 468 539 32,000  Level FlightAware ADS-B (EGCW)
Fri 07:55:45 AM 52.1944 -5.2996 281° West 471 542 32,000  Level FlightAware ADS-B (EGCW)
Fri 07:56:16 AM 52.2077 -5.4077 281° West 473 544 32,000  Level FlightAware ADS-B (EGCW)
Fri 07:56:48 AM 52.2215 -5.5197 281° West 475 547 32,000  Level FlightAware ADS-B
Fri 07:57:19 AM 52.2343 -5.6212 281° West 475 547 32,000  Level FlightAware ADS-B (EPBY / BZG)
Fri 07:57:49 AM 52.2477 -5.7336 281° West 476 548 32,000  Level FlightAware ADS-B (EPBY / BZG)
Fri 07:58:19 AM 52.2605 -5.8354 281° West 475 547 32,000  Level FlightAware ADS-B (EPBY / BZG)
Fri 07:58:50 AM 52.2734 -5.9442 281° West 475 547 32,000  Level FlightAware ADS-B (EPBY / BZG)
Fri 07:59:23 AM 52.2876 -6.0636 281° West 475 547 32,000  Level FlightAware ADS-B
Fri 08:00:04 AM 52.3042 -6.2036 281° West 472 543 32,000  Level FlightAware ADS-B
Fri 08:00:34 AM 52.3168 -6.3084 281° West 472 543 32,000  Level FlightAware ADS-B
Fri 08:01:22 AM 52.3367 -6.4818 281° West 470 541 32,000  Level FlightAware UK
Fri 08:01:28 AM 52.3388 -6.4965 281° West 470 541 32,000  Level FlightAware ADS-B
Fri 08:01:58 AM 52.3509 -6.6047 281° West 470 541 32,000  Level FlightAware ADS-B
Fri 08:02:31 AM 52.3637 -6.7160 280° West 470 541 32,000  Level FlightAware ADS-B (EPBY / BZG)
Fri 08:03:04 AM 52.3770 -6.8346 280° West 469 540 32,000  Level FlightAware ADS-B
Fri 08:03:38 AM 52.3901 -6.9531 280° West 469 540 32,000  Level FlightAware ADS-B
Fri 08:04:11 AM 52.4029 -7.0683 280° West 469 540 32,000  Level FlightAware ADS-B
Fri 08:04:49 AM 52.4171 -7.1973 280° West 468 539 32,000  Level FlightAware ADS-B
Fri 08:05:24 AM 52.4288 -7.3054 280° West 468 539 32,000  Level FlightAware ADS-B
Fri 08:05:54 AM 52.4417 -7.4239 280° West 468 539 32,000  Level FlightAware ADS-B
Fri 08:06:32 AM 52.4557 -7.5563 280° West 468 539 32,000  Level FlightAware ADS-B
Fri 08:07:03 AM 52.4670 -7.6646 280° West 468 539 32,000  Level FlightAware ADS-B
Fri 08:07:35 AM 52.4789 -7.7760 280° West 468 539 32,000  Level FlightAware ADS-B
Fri 08:08:06 AM 52.4899 -7.8843 280° West 468 539 32,000  Level FlightAware ADS-B
Fri 08:08:42 AM 52.5031 -8.0135 279° West 468 539 32,000  Level FlightAware ADS-B
Fri 08:09:13 AM 52.5137 -8.1182 279° West 466 536 32,000  Level FlightAware ADS-B
Fri 08:09:43 AM 52.5245 -8.2264 279° West 467 537 32,000  Level FlightAware ADS-B
Fri 08:10:23 AM 52.5381 -8.3625 279° West 466 536 32,000  Level FlightAware ADS-B
Fri 08:10:53 AM 52.5485 -8.4705 279° West 466 536 32,000  Level FlightAware ADS-B
Fri 08:11:33 AM 52.5618 -8.6066 279° West 466 536 32,000  Level FlightAware ADS-B
Fri 08:12:03 AM 52.5720 -8.7144 279° West 465 535 32,000  Level FlightAware ADS-B
Fri 08:12:33 AM 52.5817 -8.8158 279° West 465 535 32,000  Level FlightAware ADS-B
Fri 08:13:03 AM 52.5916 -8.9204 279° West 466 536 32,000  Level FlightAware ADS-B
Fri 08:13:33 AM 52.6014 -9.0252 279° West 466 536 32,000  Level FlightAware ADS-B
Fri 08:14:09 AM 52.6134 -9.1549 278° West 466 536 32,000  Level FlightAware ADS-B
Fri 08:14:43 AM 52.6241 -9.2739 278° West 465 535 32,000  Level FlightAware ADS-B
Fri 08:15:14 AM 52.6336 -9.3785 278° West 465 535 32,000  Level FlightAware ADS-B
Fri 08:15:44 AM 52.6433 -9.4871 278° West 466 536 32,000  Level FlightAware ADS-B
Fri 08:16:24 AM 52.6553 -9.6235 278° West 466 536 32,000  Level FlightAware ADS-B
Fri 08:16:54 AM 52.6646 -9.7317 278° West 465 535 32,000  Level FlightAware ADS-B
Fri 08:17:24 AM 52.6733 -9.8332 278° West 465 535 32,000  Level FlightAware ADS-B
Fri 08:17:54 AM 52.6826 -9.9381 278° West 465 535 32,000  Level FlightAware ADS-B
Fri 08:18:33 AM 52.6942 -10.0785 278° West 466 536 32,000  Level FlightAware ADS-B
Fri 08:19:04 AM 52.7031 -10.1839 278° West 466 536 32,000  Level FlightAware ADS-B
Fri 08:19:43 AM 52.7144 -10.3244 278° West 465 535 32,000  Level FlightAware ADS-B
Fri 08:20:14 AM 52.7232 -10.4331 277° West 464 534 32,000  Level FlightAware ADS-B
Fri 08:20:44 AM 52.7316 -10.5379 277° West 464 534 32,000  Level FlightAware ADS-B
Fri 08:21:24 AM 52.7423 -10.6747 277° West 465 535 32,000  Level FlightAware ADS-B
Fri 08:21:54 AM 52.7508 -10.7832 277° West 465 535 32,000  Level FlightAware ADS-B
Fri 08:22:34 AM 52.7614 -10.9203 277° West 465 535 32,000  Level FlightAware ADS-B
Fri 08:23:04 AM 52.7697 -11.0292 277° West 466 536 32,000  Level FlightAware ADS-B
Fri 08:23:34 AM 52.7773 -11.1312 277° West 465 535 32,000  Level FlightAware ADS-B
Fri 08:24:04 AM 52.7851 -11.2368 277° West 464 534 32,000  Level FlightAware ADS-B
Fri 08:24:52 AM 52.7975 -11.4088 277° West 464 534 32,000  Level FlightAware ADS-B
Fri 08:25:39 AM 52.8087 -11.5667 277° West 464 534 32,000  Level FlightAware ADS-B
Fri 09:06:00 AM 54.0000 -20.0000 293° West 455 524 32,000  Level ETMS Enhanced Traffic Management System
Fri 09:07:00 AM 55.8266 -18.7345 303° West  Level Estimated
Fri 09:08:00 AM 55.8968 -18.9287 303° West  Level Estimated
Fri 09:09:00 AM 55.9667 -19.1236 303° West  Level Estimated
Fri 09:10:00 AM 56.0363 -19.3192 303° West  Level Estimated
Fri 09:11:00 AM 56.1055 -19.5155 302° West  Level Estimated
Fri 09:12:00 AM 54.2938 -21.1939 292° West 455 524 32,000  Level FlightAware Transoceanic
Fri 09:13:00 AM 54.3417 -21.3945 292° West 455 524 32,000  Level FlightAware Transoceanic
Fri 09:14:00 AM 54.3892 -21.5956 292° West 455 524 32,000  Level FlightAware Transoceanic
Fri 09:15:00 AM 54.4363 -21.7971 292° West 455 524 32,000  Level FlightAware Transoceanic
Fri 09:16:00 AM 54.4831 -21.9991 292° West 455 524 32,000  Level FlightAware Transoceanic
Fri 09:17:00 AM 54.5296 -22.2016 291° West 455 524 32,000  Level FlightAware Transoceanic
Fri 09:18:00 AM 54.5757 -22.4046 291° West 455 524 32,000  Level FlightAware Transoceanic
Fri 09:19:00 AM 54.6216 -22.6080 291° West 455 524 32,000  Level FlightAware Transoceanic
Fri 09:20:00 AM 54.6670 -22.8118 291° West 455 524 32,000  Level FlightAware Transoceanic
Fri 09:21:00 AM 54.7121 -23.0161 291° West 455 524 32,000  Level FlightAware Transoceanic
Fri 09:22:00 AM 54.7569 -23.2209 291° West 455 524 32,000  Level FlightAware Transoceanic
Fri 09:23:00 AM 54.8013 -23.4261 290° West 455 524 32,000  Level FlightAware Transoceanic
Fri 09:24:00 AM 54.8454 -23.6317 290° West 455 524 32,000  Level FlightAware Transoceanic
Fri 09:25:00 AM 54.8891 -23.8379 290° West 455 524 32,000  Level FlightAware Transoceanic
Fri 09:26:00 AM 54.9325 -24.0444 290° West 455 524 32,000  Level FlightAware Transoceanic
Fri 09:27:00 AM 54.9755 -24.2514 290° West 455 524 32,000  Level FlightAware Transoceanic
Fri 09:28:00 AM 55.0182 -24.4588 290° West 455 524 32,000  Level FlightAware Transoceanic
Fri 09:29:00 AM 55.0605 -24.6667 289° West 455 524 32,000  Level FlightAware Transoceanic
Fri 09:30:00 AM 55.1025 -24.8750 289° West 455 524 32,000  Level FlightAware Transoceanic
Fri 09:31:00 AM 55.1441 -25.0838 289° West 455 524 32,000  Level FlightAware Transoceanic
Fri 09:32:00 AM 55.1854 -25.2930 289° West 455 524 32,000  Level FlightAware Transoceanic
Fri 09:33:00 AM 55.2263 -25.5026 289° West 455 524 32,000  Level FlightAware Transoceanic
Fri 09:34:00 AM 55.2668 -25.7127 289° West 455 524 32,000  Level FlightAware Transoceanic
Fri 09:35:00 AM 55.3070 -25.9231 288° West 455 524 32,000  Level FlightAware Transoceanic
Fri 09:36:00 AM 55.3468 -26.1340 288° West 455 524 32,000  Level FlightAware Transoceanic
Fri 09:37:00 AM 55.3862 -26.3454 288° West 455 524 32,000  Level FlightAware Transoceanic
Fri 09:38:00 AM 55.4253 -26.5571 288° West 455 524 32,000  Level FlightAware Transoceanic
Fri 09:39:00 AM 55.4640 -26.7693 288° West 455 524 32,000  Level FlightAware Transoceanic
Fri 09:40:00 AM 55.5024 -26.9818 288° West 455 524 32,000  Level FlightAware Transoceanic
Fri 09:41:00 AM 55.5404 -27.1948 287° West 455 524 32,000  Level FlightAware Transoceanic
Fri 09:42:00 AM 55.5780 -27.4082 287° West 455 524 32,000  Level FlightAware Transoceanic
Fri 09:43:00 AM 55.6152 -27.6220 287° West 455 524 32,000  Level FlightAware Transoceanic
Fri 09:44:00 AM 55.6521 -27.8363 287° West 455 524 32,000  Level FlightAware Transoceanic
Fri 09:45:00 AM 55.6886 -28.0509 287° West 455 524 32,000  Level FlightAware Transoceanic
Fri 09:46:00 AM 55.7247 -28.2659 287° West 455 524 32,000  Level FlightAware Transoceanic
Fri 09:47:00 AM 55.7604 -28.4813 286° West 455 524 32,000  Level FlightAware Transoceanic
Fri 09:48:00 AM 55.7958 -28.6971 286° West 455 524 32,000  Level FlightAware Transoceanic
Fri 09:49:00 AM 55.8308 -28.9133 286° West 455 524 32,000  Level FlightAware Transoceanic
Fri 09:50:00 AM 55.8654 -29.1299 286° West 455 524 32,000  Level FlightAware Transoceanic
Fri 09:51:00 AM 55.8996 -29.3468 286° West 455 524 32,000  Level FlightAware Transoceanic
Fri 09:52:00 AM 55.9335 -29.5642 285° West 455 524 32,000  Level FlightAware Transoceanic
Fri 09:53:00 AM 55.9669 -29.7819 285° West 455 524 32,000  Level FlightAware Transoceanic
Fri 09:54:00 AM 56.0008 -30.0056 285° West  Level FlightAware Approximate
Fri 09:55:00 AM 56.0035 -30.0096 303° West  Level FlightAware Approximate
Fri 09:56:00 AM 56.0746 -30.2037 303° West  Level FlightAware Approximate
Fri 09:57:00 AM 56.1454 -30.3985 303° West  Level FlightAware Approximate
Fri 09:58:00 AM 56.2158 -30.5940 303° West  Level FlightAware Approximate
Fri 09:59:00 AM 56.2859 -30.7902 303° West  Level FlightAware Approximate
Fri 10:00:00 AM 56.3558 -30.9871 303° West  Level FlightAware Approximate
Fri 10:01:00 AM 56.4253 -31.1848 303° West  Level FlightAware Approximate
Fri 10:02:00 AM 56.4945 -31.3832 302° West  Level FlightAware Approximate
Fri 10:03:00 AM 56.5634 -31.5823 302° West  Level FlightAware Approximate
Fri 10:04:00 AM 56.6320 -31.7821 302° West  Level FlightAware Approximate
Fri 10:05:00 AM 56.7002 -31.9827 302° West  Level FlightAware Approximate
Fri 10:06:00 AM 56.7681 -32.1839 302° West  Level FlightAware Approximate
Fri 10:07:00 AM 56.8357 -32.3859 302° West  Level FlightAware Approximate
Fri 10:08:00 AM 56.9030 -32.5887 301° West  Level FlightAware Approximate
Fri 10:09:00 AM 56.9699 -32.7922 301° West  Level FlightAware Approximate
Fri 10:10:00 AM 57.0365 -32.9964 301° West  Level FlightAware Approximate
Fri 10:11:00 AM 57.1028 -33.2013 301° West  Level FlightAware Approximate
Fri 10:12:00 AM 57.1687 -33.4070 301° West  Level FlightAware Approximate
Fri 10:13:00 AM 57.2343 -33.6134 300° West  Level FlightAware Approximate
Fri 10:14:00 AM 57.2996 -33.8205 300° West  Level FlightAware Approximate
Fri 10:15:00 AM 57.3645 -34.0284 300° West  Level FlightAware Approximate
Fri 10:16:00 AM 57.4291 -34.2370 300° West  Level FlightAware Approximate
Fri 10:17:00 AM 57.4933 -34.4463 300° West  Level FlightAware Approximate
Fri 10:18:00 AM 57.5572 -34.6564 300° West  Level FlightAware Approximate
Fri 10:19:00 AM 57.6207 -34.8672 299° West  Level FlightAware Approximate
Fri 10:20:00 AM 57.6839 -35.0787 299° West  Level FlightAware Approximate
Fri 10:21:00 AM 57.7467 -35.2910 299° West  Level FlightAware Approximate
Fri 10:22:00 AM 57.8092 -35.5040 299° West  Level FlightAware Approximate
Fri 10:23:00 AM 57.8713 -35.7178 299° West  Level FlightAware Approximate
Fri 10:24:00 AM 57.9331 -35.9323 299° West  Level FlightAware Approximate
Fri 10:25:00 AM 57.9945 -36.1475 298° West  Level FlightAware Approximate
Fri 10:26:00 AM 58.0555 -36.3635 298° West  Level FlightAware Approximate
Fri 10:27:00 AM 58.1162 -36.5802 298° West  Level FlightAware Approximate
Fri 10:28:00 AM 58.1764 -36.7976 298° West  Level FlightAware Approximate
Fri 10:29:00 AM 58.2364 -37.0158 298° West  Level FlightAware Approximate
Fri 10:30:00 AM 58.2959 -37.2347 297° West  Level FlightAware Approximate
Fri 10:31:00 AM 58.3551 -37.4544 297° West  Level FlightAware Approximate
Fri 10:32:00 AM 58.4139 -37.6748 297° West  Level FlightAware Approximate
Fri 10:33:00 AM 58.4723 -37.8959 297° West  Level FlightAware Approximate
Fri 10:34:00 AM 58.5303 -38.1177 297° West  Level FlightAware Approximate
Fri 10:35:00 AM 58.5880 -38.3403 296° West  Level FlightAware Approximate
Fri 10:36:00 AM 58.6452 -38.5636 296° West  Level FlightAware Approximate
Fri 10:37:00 AM 58.7021 -38.7877 296° West  Level FlightAware Approximate
Fri 10:38:00 AM 58.7586 -39.0125 296° West  Level FlightAware Approximate
Fri 10:39:00 AM 58.8147 -39.2380 296° West  Level FlightAware Approximate
Fri 10:40:00 AM 58.8704 -39.4642 296° West  Level FlightAware Approximate
Fri 10:41:00 AM 58.9257 -39.6912 295° West  Level FlightAware Approximate
Fri 10:42:00 AM 58.9806 -39.9188 295° West  Level FlightAware Approximate
Fri 10:43:00 AM 59.0354 -40.1469 295° West  Level FlightAware Approximate
Fri 10:44:00 AM 59.0901 -40.3756 295° West  Level FlightAware Approximate
Fri 10:45:00 AM 59.1443 -40.6049 295° West  Level FlightAware Approximate
Fri 10:46:00 AM 59.1982 -40.8350 295° West  Level FlightAware Approximate
Fri 10:47:00 AM 59.2517 -41.0658 294° West  Level FlightAware Approximate
Fri 10:48:00 AM 59.3047 -41.2974 294° West  Level FlightAware Approximate
Fri 10:49:00 AM 59.3591 -41.5280 295° West  Level FlightAware Approximate
Fri 10:50:00 AM 59.4136 -41.7590 295° West  Level FlightAware Approximate
Fri 10:51:00 AM 59.4676 -41.9907 295° West  Level FlightAware Approximate
Fri 10:52:00 AM 59.5213 -42.2231 295° West  Level FlightAware Approximate
Fri 10:53:00 AM 59.5746 -42.4563 294° West  Level FlightAware Approximate
Fri 10:54:00 AM 59.6274 -42.6903 294° West  Level FlightAware Approximate
Fri 10:55:00 AM 59.6802 -42.9246 294° West  Level FlightAware Approximate
Fri 10:56:00 AM 59.7326 -43.1596 294° West  Level FlightAware Approximate
Fri 10:57:00 AM 59.7846 -43.3954 294° West  Level FlightAware Approximate
Fri 10:58:00 AM 59.8362 -43.6319 294° West  Level FlightAware Approximate
Fri 10:59:00 AM 59.8873 -43.8691 293° West  Level FlightAware Approximate
Fri 11:00:00 AM 59.9381 -44.1071 293° West  Level FlightAware Approximate
Fri 11:01:00 AM 59.9884 -44.3457 293° West  Level FlightAware Approximate
Fri 11:02:00 AM 60.0382 -44.5852 293° West  Level FlightAware Approximate
Fri 11:03:00 AM 60.0877 -44.8253 293° West  Level FlightAware Approximate
Fri 11:04:00 AM 60.1367 -45.0661 292° West  Level FlightAware Approximate
Fri 11:05:00 AM 60.1852 -45.3077 292° West  Level FlightAware Approximate
Fri 11:06:00 AM 60.2333 -45.5499 292° West  Level FlightAware Approximate
Fri 11:07:00 AM 60.2792 -45.7943 291° West  Level FlightAware Approximate
Fri 11:08:00 AM 60.3246 -46.0394 291° West  Level FlightAware Approximate
Fri 11:09:00 AM 60.3696 -46.2851 290° West  Level FlightAware Approximate
Fri 11:10:00 AM 60.4141 -46.5316 290° West  Level FlightAware Approximate
Fri 11:11:00 AM 60.4581 -46.7787 290° West  Level FlightAware Approximate
Fri 11:12:00 AM 60.5018 -47.0264 290° West  Level FlightAware Approximate
Fri 11:13:00 AM 60.5463 -47.2738 290° West  Level FlightAware Approximate
Fri 11:14:00 AM 60.5905 -47.5218 290° West  Level FlightAware Approximate
Fri 11:15:00 AM 60.6341 -47.7705 290° West  Level FlightAware Approximate
Fri 11:16:00 AM 60.6773 -48.0199 290° West  Level FlightAware Approximate
Fri 11:17:00 AM 60.7200 -48.2700 289° West  Level FlightAware Approximate
Fri 11:18:00 AM 60.7623 -48.5207 289° West  Level FlightAware Approximate
Fri 11:19:00 AM 60.8041 -48.7721 289° West  Level FlightAware Approximate
Fri 11:20:00 AM 60.8454 -49.0242 289° West  Level FlightAware Approximate
Fri 11:21:00 AM 60.8863 -49.2769 288° West  Level FlightAware Approximate
Fri 11:22:00 AM 60.9267 -49.5302 288° West  Level FlightAware Approximate
Fri 11:23:00 AM 60.9665 -49.7841 288° West  Level FlightAware Approximate
Fri 11:24:00 AM 61.0090 -50.0361 297° West  Level FlightAware Approximate
Fri 11:25:00 AM 61.0683 -50.2742 297° West  Level FlightAware Approximate
Fri 11:26:00 AM 61.1271 -50.5132 297° West  Level FlightAware Approximate
Fri 11:27:00 AM 61.1856 -50.7531 297° West  Level FlightAware Approximate
Fri 11:28:00 AM 61.2435 -50.9939 297° West  Level FlightAware Approximate
Fri 11:29:00 AM 61.3011 -51.2355 296° West  Level FlightAware Approximate
Fri 11:30:00 AM 61.3582 -51.4781 296° West  Level FlightAware Approximate
Fri 11:31:00 AM 61.4149 -51.7215 296° West  Level FlightAware Approximate
Fri 11:32:00 AM 61.4712 -51.9658 296° West  Level FlightAware Approximate
Fri 11:33:00 AM 61.5270 -52.2109 296° West  Level FlightAware Approximate
Fri 11:34:00 AM 61.5824 -52.4570 295° West  Level FlightAware Approximate
Fri 11:35:00 AM 61.6373 -52.7039 295° West  Level FlightAware Approximate
Fri 11:36:00 AM 61.6918 -52.9518 295° West  Level FlightAware Approximate
Fri 11:37:00 AM 61.7458 -53.2005 295° West  Level FlightAware Approximate
Fri 11:38:00 AM 61.7994 -53.4500 295° West  Level FlightAware Approximate
Fri 11:39:00 AM 61.8525 -53.7004 294° West  Level FlightAware Approximate
Fri 11:40:00 AM 61.9052 -53.9517 294° West  Level FlightAware Approximate
Fri 11:41:00 AM 61.9574 -54.2039 294° West  Level FlightAware Approximate
Fri 11:42:00 AM 62.0092 -54.4569 294° West  Level FlightAware Approximate
Fri 11:43:00 AM 62.0605 -54.7108 293° West  Level FlightAware Approximate
Fri 11:44:00 AM 62.1113 -54.9655 293° West  Level FlightAware Approximate
Fri 11:45:00 AM 62.1617 -55.2211 293° West  Level FlightAware Approximate
Fri 11:46:00 AM 62.2115 -55.4775 293° West  Level FlightAware Approximate
Fri 11:47:00 AM 62.2609 -55.7348 293° West  Level FlightAware Approximate
Fri 11:48:00 AM 62.3099 -55.9929 292° West  Level FlightAware Approximate
Fri 11:49:00 AM 62.3583 -56.2518 292° West  Level FlightAware Approximate
Fri 11:50:00 AM 62.4063 -56.5116 292° West  Level FlightAware Approximate
Fri 11:51:00 AM 62.4538 -56.7722 292° West  Level FlightAware Approximate
Fri 11:52:00 AM 62.5007 -57.0337 291° West  Level FlightAware Approximate
Fri 11:53:00 AM 62.5472 -57.2959 291° West  Level FlightAware Approximate
Fri 11:54:00 AM 62.5932 -57.5587 291° West  Level FlightAware Approximate
Fri 11:55:00 AM 62.6387 -57.8223 291° West  Level FlightAware Approximate
Fri 11:55:04 AM 62.3167 -55.8500 290° West 480 552 32,000  Level Gander Center
Fri 11:56:00 AM 62.6836 -58.0866 290° West  Level FlightAware Approximate
Fri 11:56:04 AM 62.3833 -56.1333 297° West 490 564 32,000  Level Gander Center
Fri 11:57:00 AM 62.7281 -58.3518 290° West  Level FlightAware Approximate
Fri 11:57:04 AM 62.4333 -56.4167 291° West 490 564 32,000  Level Gander Center
Fri 11:58:00 AM 62.7733 -58.6168 291° West  Level FlightAware Approximate
Fri 11:58:04 AM 62.4667 -56.6500 287° West 490 564 32,000  Level Gander Center
Fri 11:59:00 AM 62.8182 -58.8825 290° West  Level FlightAware Approximate
Fri 11:59:04 AM 62.5333 -56.9333 297° West 490 564 32,000  Level Gander Center
Fri 12:00:00 PM 62.8625 -59.1489 290° West  Level FlightAware Approximate
Fri 12:00:04 PM 62.5667 -57.2167 284° West 490 564 32,000  Level Gander Center
Fri 12:01:04 PM 62.6167 -57.4667 294° West 490 564 32,000  Level Gander Center
Fri 12:02:04 PM 62.6667 -57.7500 291° West 490 564 32,000  Level Gander Center
Fri 12:03:04 PM 62.7167 -58.0333 291° West 490 564 32,000 650 Level Gander Center
Fri 12:04:04 PM 62.7667 -58.3167 291° West 490 564 33,300 1,000 Climbing Gander Center
Fri 12:05:04 PM 62.8167 -58.5667 294° West 490 564 34,000 350 Climbing Gander Center
Fri 12:06:04 PM 62.8500 -58.8500 285° West 490 564 34,000  Level Gander Center
Fri 12:07:04 PM 62.8833 -59.1333 285° West 490 564 34,000  Level Gander Center
Fri 12:08:04 PM 62.9500 -59.4333 296° West 490 564 34,000  Level Gander Center
Fri 12:09:04 PM 62.9833 -59.6833 286° West 490 564 34,000  Level Gander Center
Fri 12:10:04 PM 63.0333 -59.9667 291° West 490 564 34,000  Level Gander Center
Fri 12:11:04 PM 63.0833 -60.2500 291° West 490 564 34,000  Level Gander Center
Fri 12:12:04 PM 63.1167 -60.5500 284° West 490 564 34,000  Level Gander Center
Fri 12:13:04 PM 63.1667 -60.8000 294° West 490 564 34,000  Level Gander Center
Fri 12:14:04 PM 63.2167 -61.1000 290° West 490 564 34,000  Level Gander Center
Fri 12:15:04 PM 63.2667 -61.3500 294° West 490 564 34,000  Level Gander Center
Fri 12:16:04 PM 63.3167 -61.6833 289° West 480 552 34,000  Level Gander Center
Fri 12:17:04 PM 63.3667 -61.9500 293° West 480 552 34,000  Level Gander Center
Fri 12:18:04 PM 63.4000 -62.2500 284° West 480 552 34,000  Level Gander Center
Fri 12:19:04 PM 63.4500 -62.5000 294° West 480 552 34,000  Level Gander Center
Fri 12:20:04 PM 63.5000 -62.8000 291° West 490 564 34,000  Level Gander Center
Fri 12:21:04 PM 63.5167 -63.0667 278° West 480 552 34,000  Level Gander Center
Fri 12:22:04 PM 63.5500 -63.4000 283° West 480 552 34,000  Level Gander Center
Fri 12:23:04 PM 63.5667 -63.7000 277° West 480 552 34,000  Level Gander Center
Fri 12:24:04 PM 63.5667 -64.0000 270° West 480 552 34,000  Level Gander Center
Fri 12:25:04 PM 63.6000 -64.2667 286° West 480 552 34,000  Level Gander Center
Fri 12:26:04 PM 63.6167 -64.5500 278° West 480 552 34,000  Level Gander Center
Fri 12:27:04 PM 63.6167 -64.8500 270° West 480 552 34,000  Level Gander Center
Fri 12:28:04 PM 63.6500 -65.1500 284° West 480 552 34,000  Level Gander Center
Fri 12:29:04 PM 63.6500 -65.4500 270° West 480 552 34,000  Level Gander Center
Fri 12:30:04 PM 63.6667 -65.7500 277° West 490 564 34,000  Level Gander Center
Fri 12:31:04 PM 63.6833 -66.0667 277° West 490 564 34,000  Level Gander Center
Fri 12:32:04 PM 63.7000 -66.3667 277° West 490 564 34,000  Level Gander Center
Fri 12:33:04 PM 63.7000 -66.6667 270° West 490 564 34,000  Level Gander Center
Fri 12:34:04 PM 63.7167 -66.9667 277° West 490 564 34,000  Level Gander Center
Fri 12:35:04 PM 63.7333 -67.2667 277° West 490 564 34,000  Level Gander Center
Fri 12:36:04 PM 63.7333 -67.5667 270° West 490 564 34,000  Level Gander Center
Fri 12:37:04 PM 63.7500 -67.8667 277° West 490 564 34,000  Level Gander Center
Fri 12:38:04 PM 63.7500 -68.1667 270° West 490 564 34,000  Level Gander Center
Fri 12:39:04 PM 63.7667 -68.5167 276° West 510 587 34,000  Level Gander Center
Fri 12:40:25 PM 63.7667 -68.8000 270° West 480 552 34,000  Level Montreal Center
Fri 12:41:25 PM 63.7500 -69.1167 263° West 490 564 34,000  Level Montreal Center
Fri 12:42:25 PM 63.7333 -69.4500 264° West 480 552 34,000  Level Montreal Center
Fri 12:43:25 PM 63.7333 -69.7167 270° West 480 552 34,000  Level Montreal Center
Fri 12:44:20 PM 63.6667 -69.8333 218° Southwest 480 552 34,000  Level Edmonton Center
Fri 12:45:20 PM 63.6500 -70.1500 263° West 480 552 34,000  Level Edmonton Center
Fri 12:46:20 PM 63.6500 -70.4167 270° West 480 552 34,000  Level Edmonton Center
Fri 12:47:20 PM 63.6333 -70.7500 264° West 490 564 34,000  Level Edmonton Center
Fri 12:48:20 PM 63.6167 -71.0333 263° West 490 564 34,000  Level Edmonton Center
Fri 12:49:20 PM 63.6167 -71.3333 270° West 490 564 34,000  Level Edmonton Center
Fri 12:50:20 PM 63.6000 -71.6167 263° West 490 564 34,000  Level Edmonton Center
Fri 12:51:20 PM 63.5833 -71.9500 264° West 490 564 34,000  Level Edmonton Center
Fri 12:52:20 PM 63.5667 -72.2167 262° West 490 564 34,000  Level Edmonton Center
Fri 12:53:20 PM 63.5500 -72.5333 263° West 490 564 34,000  Level Edmonton Center
Fri 12:54:20 PM 63.5333 -72.8500 263° West 490 564 34,000  Level Edmonton Center
Fri 12:55:20 PM 63.5167 -73.1667 263° West 490 564 34,000  Level Edmonton Center
Fri 12:56:20 PM 63.5000 -73.4333 262° West 490 564 34,000  Level Edmonton Center
Fri 12:57:20 PM 63.4833 -73.7500 263° West 490 564 34,000  Level Edmonton Center
Fri 12:58:20 PM 63.4667 -74.0833 264° West 490 564 34,000  Level Edmonton Center
Fri 12:59:20 PM 63.4333 -74.3667 255° West 490 564 34,000  Level Edmonton Center
Fri 01:00:20 PM 63.4333 -74.6667 270° West 490 564 34,000  Level Edmonton Center
Fri 01:01:20 PM 63.4000 -75.0000 258° West 490 564 34,000  Level Edmonton Center
Fri 01:02:20 PM 63.3833 -75.3000 263° West 490 564 34,000 27 Level Edmonton Center
Fri 01:04:00 PM 63.3813 -75.7088 260° West  Level FlightAware Approximate
Fri 01:11:00 PM 63.2141 -77.6662 260° West  Level FlightAware Approximate
Fri 01:12:00 PM 63.1880 -77.9439 258° West  Level FlightAware Approximate
Fri 01:13:00 PM 63.1621 -78.2214 259° West  Level FlightAware Approximate
Fri 01:14:00 PM 63.1383 -78.4997 259° West  Level FlightAware Approximate
Fri 01:15:00 PM 63.1140 -78.7775 259° West  Level FlightAware Approximate
Fri 01:16:00 PM 63.0891 -79.0548 259° West  Level FlightAware Approximate
Fri 01:17:00 PM 63.0637 -79.3316 259° West  Level FlightAware Approximate
Fri 01:18:00 PM 63.0378 -79.6079 258° West  Level FlightAware Approximate
Fri 01:19:00 PM 63.0113 -79.8838 258° West  Level FlightAware Approximate
Fri 01:20:00 PM 62.9770 -80.1547 252° West  Level FlightAware Approximate
Fri 01:21:00 PM 62.9369 -80.4213 252° West  Level FlightAware Approximate
Fri 01:22:00 PM 62.8962 -80.6871 252° West  Level FlightAware Approximate
Fri 01:23:00 PM 62.8551 -80.9522 251° West  Level FlightAware Approximate
Fri 01:24:00 PM 62.7999 -81.2041 244° Southwest  Level Estimated
Fri 01:25:00 PM 62.7443 -81.4551 244° Southwest  Level Estimated
Fri 01:26:00 PM 62.6882 -81.7052 244° Southwest  Level Estimated
Fri 01:27:00 PM 62.6317 -81.9543 244° Southwest  Level Estimated
Fri 01:28:00 PM 62.5748 -82.2024 244° Southwest  Level Estimated
Fri 01:29:00 PM 62.5174 -82.4496 243° Southwest  Level Estimated
Fri 01:30:00 PM 62.4596 -82.6958 243° Southwest  Level Estimated
Fri 01:31:00 PM 62.4013 -82.9411 243° Southwest  Level Estimated
Fri 01:32:00 PM 62.3427 -83.1855 243° Southwest  Level Estimated
Fri 01:33:00 PM 62.2835 -83.4288 243° Southwest  Level Estimated
Fri 01:34:00 PM 62.2240 -83.6712 242° Southwest  Level Estimated
Fri 01:35:00 PM 62.1641 -83.9127 242° Southwest  Level Estimated
Fri 01:36:00 PM 62.1037 -84.1532 242° Southwest  Level Estimated
Fri 01:37:00 PM 62.0429 -84.3927 242° Southwest  Level Estimated
Fri 01:38:00 PM 61.9817 -84.6313 241° Southwest  Level Estimated
Fri 01:39:00 PM 61.9201 -84.8689 241° Southwest  Level Estimated
Fri 01:40:00 PM 61.8581 -85.1056 241° Southwest  Level Estimated
Fri 01:41:00 PM 61.7957 -85.3413 241° Southwest  Level Estimated
Fri 01:42:00 PM 61.7328 -85.5760 241° Southwest  Level Estimated
Fri 01:43:00 PM 61.6696 -85.8098 240° Southwest  Level Estimated
Fri 01:44:00 PM 61.6060 -86.0427 240° Southwest  Level Estimated
Fri 01:45:00 PM 61.5420 -86.2745 240° Southwest  Level Estimated
Fri 01:46:00 PM 61.4776 -86.5054 240° Southwest  Level Estimated
Fri 01:47:00 PM 61.4128 -86.7354 240° Southwest  Level Estimated
Fri 01:48:00 PM 61.3476 -86.9644 239° Southwest  Level Estimated
Fri 01:49:00 PM 61.2820 -87.1924 239° Southwest  Level Estimated
Fri 01:50:00 PM 61.2161 -87.4195 239° Southwest  Level Estimated
Fri 01:51:00 PM 61.1497 -87.6457 239° Southwest  Level Estimated
Fri 01:52:00 PM 61.0830 -87.8709 239° Southwest  Level Estimated
Fri 01:53:00 PM 61.0160 -88.0951 238° Southwest  Level Estimated
Fri 01:54:00 PM 60.9485 -88.3184 238° Southwest  Level Estimated
Fri 01:55:00 PM 60.8807 -88.5407 238° Southwest  Level Estimated
Fri 01:56:00 PM 60.8125 -88.7622 238° Southwest  Level Estimated
Fri 01:57:00 PM 60.7440 -88.9826 238° Southwest  Level Estimated
Fri 01:58:00 PM 60.6751 -89.2021 237° Southwest  Level Estimated
Fri 01:59:00 PM 60.6058 -89.4207 237° Southwest  Level Estimated
Fri 02:00:00 PM 60.5362 -89.6383 237° Southwest  Level Estimated
Fri 02:01:00 PM 60.4663 -89.8550 237° Southwest  Level Estimated
Fri 02:02:00 PM 60.3959 -90.0708 237° Southwest  Level Estimated
Fri 02:03:00 PM 60.3253 -90.2856 236° Southwest  Level Estimated
Fri 02:04:00 PM 60.2543 -90.4995 236° Southwest  Level Estimated
Fri 02:05:00 PM 60.1829 -90.7125 236° Southwest  Level Estimated
Fri 02:06:00 PM 60.1112 -90.9246 236° Southwest  Level Estimated
Fri 02:07:00 PM 60.0392 -91.1357 236° Southwest  Level Estimated
Fri 02:08:00 PM 59.9668 -91.3459 236° Southwest  Level Estimated
Fri 02:09:00 PM 59.8941 -91.5552 235° Southwest  Level Estimated
Fri 02:10:00 PM 59.8212 -91.7632 235° Southwest  Level Estimated
Fri 02:11:00 PM 59.7480 -91.9703 235° Southwest  Level Estimated
Fri 02:12:00 PM 59.6745 -92.1764 235° Southwest  Level Estimated
Fri 02:13:00 PM 59.6006 -92.3817 235° Southwest  Level Estimated
Fri 02:14:00 PM 59.5264 -92.5861 234° Southwest  Level Estimated
Fri 02:15:00 PM 59.4519 -92.7896 234° Southwest  Level Estimated
Fri 02:16:00 PM 59.3771 -92.9921 234° Southwest  Level Estimated
Fri 02:16:18 PM 59.4500 -95.3167 233° Southwest 550 633 36,000  Level Edmonton Center
Fri 02:17:00 PM 59.3019 -93.1938 234° Southwest  Level Estimated
Fri 02:17:18 PM 59.3667 -95.5500 235° Southwest 500 575 36,000  Level Edmonton Center
Fri 02:18:00 PM 59.2265 -93.3946 234° Southwest  Level Estimated
Fri 02:18:18 PM 59.2667 -95.7333 223° Southwest 500 575 36,000  Level Edmonton Center
Fri 02:19:00 PM 59.1508 -93.5945 234° Southwest  Level Estimated
Fri 02:19:18 PM 59.1833 -95.9500 233° Southwest 500 575 36,000  Level Edmonton Center
Fri 02:20:00 PM 59.0747 -93.7935 233° Southwest  Level Estimated
Fri 02:20:18 PM 59.1000 -96.1833 235° Southwest 500 575 36,000  Level Edmonton Center
Fri 02:21:00 PM 58.9983 -93.9917 233° Southwest  Level Estimated
Fri 02:21:18 PM 59.0167 -96.4000 233° Southwest 500 575 36,000  Level Edmonton Center
Fri 02:22:18 PM 58.9167 -96.5833 223° Southwest 500 575 36,000  Level Edmonton Center
Fri 02:23:18 PM 58.8333 -96.8167 235° Southwest 500 575 36,000  Level Edmonton Center
Fri 02:24:18 PM 58.7500 -97.0333 234° Southwest 500 575 36,000  Level Edmonton Center
Fri 02:25:18 PM 58.6500 -97.2500 228° Southwest 500 575 36,000  Level Edmonton Center
Fri 02:26:07 PM 58.6000 -97.4333 242° Southwest 500 575 36,000  Level Winnipeg Center
Fri 02:27:07 PM 58.5167 -97.6333 231° Southwest 510 587 36,000  Level Winnipeg Center
Fri 02:28:07 PM 58.4000 -97.8500 224° Southwest 500 575 36,000  Level Winnipeg Center
Fri 02:29:07 PM 58.3167 -98.0500 232° Southwest 500 575 36,000  Level Winnipeg Center
Fri 02:30:07 PM 58.2167 -98.2667 229° Southwest 510 587 36,000  Level Winnipeg Center
Fri 02:31:07 PM 58.1333 -98.4500 229° Southwest 510 587 36,000  Level Winnipeg Center
Fri 02:32:07 PM 58.0500 -98.6667 234° Southwest 500 575 36,000  Level Winnipeg Center
Fri 02:33:07 PM 57.9500 -98.8500 224° Southwest 500 575 36,000  Level Winnipeg Center
Fri 02:34:07 PM 57.8667 -99.0667 234° Southwest 500 575 36,000  Level Winnipeg Center
Fri 02:35:07 PM 57.7667 -99.2500 224° Southwest 510 587 36,000  Level Winnipeg Center
Fri 02:36:07 PM 57.6667 -99.4333 224° Southwest 510 587 36,000  Level Winnipeg Center
Fri 02:37:07 PM 57.5833 -99.6500 234° Southwest 500 575 36,000  Level Winnipeg Center
Fri 02:38:07 PM 57.5000 -99.8167 227° Southwest 510 587 36,000  Level Winnipeg Center
Fri 02:39:07 PM 57.3833 -100.0333 225° Southwest 500 575 36,000  Level Winnipeg Center
Fri 02:40:07 PM 57.3000 -100.2167 230° Southwest 500 575 36,000  Level Winnipeg Center
Fri 02:41:07 PM 57.2000 -100.4167 227° Southwest 500 575 36,000  Level Winnipeg Center
Fri 02:42:07 PM 57.1000 -100.6000 225° Southwest 500 575 36,000  Level Winnipeg Center
Fri 02:43:07 PM 57.0167 -100.7667 227° Southwest 500 575 36,000  Level Winnipeg Center
Fri 02:44:07 PM 56.9167 -100.9833 230° Southwest 500 575 36,000  Level Winnipeg Center
Fri 02:45:07 PM 56.8167 -101.1500 222° Southwest 500 575 36,000  Level Winnipeg Center
Fri 02:46:07 PM 56.7333 -101.3500 233° Southwest 490 564 36,000  Level Winnipeg Center
Fri 02:47:07 PM 56.6667 -101.5333 237° Southwest 490 564 36,000  Level Winnipeg Center
Fri 02:48:07 PM 56.5667 -101.7333 228° Southwest 490 564 36,000  Level Winnipeg Center
Fri 02:49:07 PM 56.4833 -101.9000 228° Southwest 490 564 36,000  Level Winnipeg Center
Fri 02:50:07 PM 56.3833 -102.1000 228° Southwest 490 564 36,000  Level Winnipeg Center
Fri 02:51:07 PM 56.3000 -102.3000 233° Southwest 490 564 36,000  Level Winnipeg Center
Fri 02:52:07 PM 56.2000 -102.4667 223° Southwest 490 564 36,000  Level Winnipeg Center
Fri 02:53:07 PM 56.1333 -102.6667 239° Southwest 490 564 36,000  Level Winnipeg Center
Fri 02:54:07 PM 56.0333 -102.8333 223° Southwest 490 564 36,000  Level Winnipeg Center
Fri 02:55:07 PM 55.9500 -103.0333 233° Southwest 490 564 36,000  Level Winnipeg Center
Fri 02:56:07 PM 55.8500 -103.2000 223° Southwest 490 564 36,000  Level Winnipeg Center
Fri 02:57:07 PM 55.7500 -103.3833 226° Southwest 480 552 36,000  Level Winnipeg Center
Fri 02:58:07 PM 55.6833 -103.5500 235° Southwest 480 552 36,000 400 Level Winnipeg Center
Fri 03:00:07 PM 55.5000 -103.9500 231° Southwest 490 564 37,200 667 Climbing Winnipeg Center
Fri 03:01:07 PM 55.4000 -104.1000 220° Southwest 490 564 38,000 400 Climbing Winnipeg Center
Fri 03:02:07 PM 55.3000 -104.3000 229° Southwest 500 575 38,000  Level Winnipeg Center
Fri 03:03:07 PM 55.2167 -104.4500 226° Southwest 500 575 38,000  Level Winnipeg Center
Fri 03:04:07 PM 55.1167 -104.6333 226° Southwest 490 564 38,000  Level Winnipeg Center
Fri 03:05:07 PM 55.0333 -104.8000 229° Southwest 490 564 38,000  Level Winnipeg Center
Fri 03:06:07 PM 54.9500 -104.9833 232° Southwest 490 564 38,000  Level Winnipeg Center
Fri 03:07:07 PM 54.8500 -105.1667 227° Southwest 490 564 38,000  Level Winnipeg Center
Fri 03:08:07 PM 54.7500 -105.3333 224° Southwest 480 552 38,000  Level Winnipeg Center
Fri 03:09:07 PM 54.6500 -105.4833 221° Southwest 480 552 38,000  Level Winnipeg Center
Fri 03:10:07 PM 54.5667 -105.6667 232° Southwest 480 552 38,000  Level Winnipeg Center
Fri 03:11:07 PM 54.4833 -105.8167 226° Southwest 480 552 38,000  Level Winnipeg Center
Fri 03:12:07 PM 54.3833 -105.9833 224° Southwest 480 552 38,000  Level Winnipeg Center
Fri 03:13:07 PM 54.2833 -106.1667 227° Southwest 480 552 38,000  Level Winnipeg Center
Fri 03:14:07 PM 54.1833 -106.3333 224° Southwest 480 552 38,000  Level Winnipeg Center
Fri 03:15:07 PM 54.1000 -106.4833 227° Southwest 480 552 38,000  Level Winnipeg Center
Fri 03:16:07 PM 54.0167 -106.6500 230° Southwest 480 552 38,000  Level Winnipeg Center
Fri 03:17:07 PM 53.9167 -106.8167 225° Southwest 480 552 38,000  Level Winnipeg Center
Fri 03:18:07 PM 53.8167 -107.0000 227° Southwest 480 552 38,000  Level Winnipeg Center
Fri 03:19:07 PM 53.7167 -107.1500 222° Southwest 480 552 38,000  Level Winnipeg Center
Fri 03:20:07 PM 53.6333 -107.3000 227° Southwest 480 552 38,000  Level Winnipeg Center
Fri 03:21:07 PM 53.5167 -107.4667 220° Southwest 480 552 38,000  Level Winnipeg Center
Fri 03:22:07 PM 53.4333 -107.6167 227° Southwest 480 552 38,000  Level Winnipeg Center
Fri 03:23:07 PM 53.3333 -107.7500 219° Southwest 480 552 38,000  Level Winnipeg Center
Fri 03:24:07 PM 53.2333 -107.9000 222° Southwest 490 564 38,000  Level Winnipeg Center
Fri 03:25:07 PM 53.1167 -108.0333 214° Southwest 490 564 38,000  Level Winnipeg Center
Fri 03:26:07 PM 53.0167 -108.1833 222° Southwest 490 564 38,000  Level Winnipeg Center
Fri 03:27:07 PM 52.9167 -108.3333 222° Southwest 490 564 38,000  Level Winnipeg Center
Fri 03:28:07 PM 52.8000 -108.5000 221° Southwest 480 552 38,000  Level Winnipeg Center
Fri 03:29:07 PM 52.7000 -108.6000 211° Southwest 480 552 38,000  Level Winnipeg Center
Fri 03:30:07 PM 52.6000 -108.7667 225° Southwest 480 552 38,000  Level Winnipeg Center
Fri 03:31:07 PM 52.5167 -108.8833 220° Southwest 480 552 38,000  Level Winnipeg Center
Fri 03:32:07 PM 52.4000 -109.0500 221° Southwest 470 541 38,000  Level Winnipeg Center
Fri 03:33:07 PM 52.3000 -109.1667 216° Southwest 480 552 38,000  Level Winnipeg Center
Fri 03:34:07 PM 52.2000 -109.3000 219° Southwest 470 541 38,000  Level Winnipeg Center
Fri 03:35:07 PM 52.1000 -109.4333 219° Southwest 470 541 38,000  Level Winnipeg Center
Fri 03:36:07 PM 52.0000 -109.5667 219° Southwest 480 552 38,000  Level Winnipeg Center
Fri 03:37:07 PM 51.8833 -109.7333 221° Southwest 480 552 38,000  Level Winnipeg Center
Fri 03:38:07 PM 51.7833 -109.8333 212° Southwest 470 541 38,000  Level Winnipeg Center
Fri 03:39:07 PM 51.6833 -110.0000 226° Southwest 480 552 38,000  Level Winnipeg Center
Fri 03:40:07 PM 51.5833 -110.1333 220° Southwest 480 552 38,000  Level Winnipeg Center
Fri 03:41:07 PM 51.4833 -110.2667 220° Southwest 480 552 38,000  Level Winnipeg Center
Fri 03:42:07 PM 51.3833 -110.4000 220° Southwest 480 552 38,000  Level Winnipeg Center
Fri 03:43:07 PM 51.2833 -110.5333 220° Southwest 480 552 38,000  Level Winnipeg Center
Fri 03:44:07 PM 51.1833 -110.6833 223° Southwest 480 552 38,000  Level Winnipeg Center
Fri 03:45:07 PM 51.1000 -110.8333 229° Southwest 480 552 38,000  Level Winnipeg Center
Fri 03:46:07 PM 51.0000 -110.9500 216° Southwest 480 552 38,000  Level Winnipeg Center
Fri 03:47:07 PM 50.8833 -111.1167 222° Southwest 480 552 38,000  Level Winnipeg Center
Fri 03:48:07 PM 50.7833 -111.2500 220° Southwest 480 552 38,000  Level Winnipeg Center
Fri 03:49:07 PM 50.6833 -111.3667 216° Southwest 470 541 38,000  Level Winnipeg Center
Fri 03:50:07 PM 50.5833 -111.5333 227° Southwest 480 552 38,000  Level Winnipeg Center
Fri 03:51:07 PM 50.5000 -111.6667 226° Southwest 480 552 38,000  Level Winnipeg Center
Fri 03:52:07 PM 50.4000 -111.7833 217° Southwest 480 552 38,000  Level Winnipeg Center
Fri 03:53:07 PM 50.3000 -111.9167 220° Southwest 470 541 38,000  Level Winnipeg Center
Fri 03:54:07 PM 50.1833 -112.0667 219° Southwest 470 541 38,000  Level Winnipeg Center
Fri 03:55:07 PM 50.0833 -112.1833 217° Southwest 470 541 38,000  Level Winnipeg Center
Fri 03:56:07 PM 49.9833 -112.3167 221° Southwest 460 529 38,000  Level Winnipeg Center
Fri 03:57:07 PM 49.9000 -112.4500 226° Southwest 460 529 38,000  Level Winnipeg Center
Fri 03:58:07 PM 49.8000 -112.5667 217° Southwest 460 529 38,000  Level Winnipeg Center
Fri 03:59:07 PM 49.7000 -112.7000 221° Southwest 460 529 38,000  Level Winnipeg Center
Fri 04:00:07 PM 49.6000 -112.8167 217° Southwest 470 541 38,000  Level Winnipeg Center
Fri 04:01:07 PM 49.5000 -112.9667 224° Southwest 470 541 38,000  Level Winnipeg Center
Fri 04:02:19 PM 49.4206 -113.0411 211° Southwest 462 532 38,000  Level Salt Lake Center
Fri 04:03:21 PM 49.3239 -113.1661 220° Southwest 460 529 38,000  Level Salt Lake Center
Fri 04:04:18 PM 49.1833 -113.3167 215° Southwest 450 518 38,000  Level Edmonton Center
Fri 04:05:18 PM 49.0833 -113.4333 217° Southwest 440 506 38,000  Level Edmonton Center
Fri 04:06:18 PM 48.9833 -113.5667 221° Southwest 440 506 38,000  Level Edmonton Center
Fri 04:07:18 PM 48.9000 -113.6833 223° Southwest 440 506 38,000  Level Edmonton Center
Fri 04:08:18 PM 48.8000 -113.7833 213° Southwest 440 506 38,000  Level Edmonton Center
Fri 04:09:31 PM 48.7344 -113.9011 230° Southwest 440 506 38,000 -45 Level Salt Lake Center
Fri 04:10:32 PM 48.6375 -114.0194 219° Southwest 443 510 37,900  Descending Salt Lake Center
Fri 04:11:34 PM 48.5214 -114.1644 220° Southwest 449 517 38,000 49 Climbing Salt Lake Center
Fri 04:12:35 PM 48.4228 -114.2839 219° Southwest 456 525 38,000  Level Salt Lake Center
Fri 04:13:37 PM 48.3247 -114.4022 219° Southwest 456 525 38,000  Level Salt Lake Center
Fri 04:14:39 PM 48.2272 -114.5200 219° Southwest 456 525 38,000  Level Salt Lake Center
Fri 04:15:28 PM 48.1489 -114.6147 219° Southwest 457 526 38,000  Level Salt Lake Center
Fri 04:16:30 PM 48.0508 -114.7308 218° Southwest 457 526 38,000  Level Salt Lake Center
Fri 04:17:31 PM 47.9325 -114.8728 219° Southwest 458 527 38,000  Level Salt Lake Center
Fri 04:18:33 PM 47.8322 -114.9908 218° Southwest 459 528 38,000 -48 Level Salt Lake Center
Fri 04:19:35 PM 47.7331 -115.1078 218° Southwest 459 528 37,900  Descending Salt Lake Center
Fri 04:20:36 PM 47.6336 -115.2228 218° Southwest 459 528 38,000 49 Climbing Salt Lake Center
Fri 04:21:38 PM 47.5350 -115.3389 218° Southwest 454 522 38,000 -48 Level Salt Lake Center
Fri 04:22:40 PM 47.4339 -115.4553 218° Southwest 457 526 37,900  Descending Salt Lake Center
Fri 04:23:42 PM 47.3139 -115.5942 218° Southwest 458 527 38,000 49 Climbing Salt Lake Center
Fri 04:24:43 PM 47.2125 -115.7083 217° Southwest 458 527 38,000  Level Salt Lake Center
Fri 04:25:45 PM 47.1111 -115.8244 218° Southwest 462 532 38,000  Level Salt Lake Center
Fri 04:26:47 PM 47.0089 -115.9394 218° Southwest 462 532 38,000  Level Salt Lake Center
Fri 04:27:48 PM 46.9108 -116.0500 218° Southwest 463 533 38,000  Level Salt Lake Center
Fri 04:28:50 PM 46.8083 -116.1658 218° Southwest 463 533 38,000  Level Salt Lake Center
Fri 04:29:52 PM 46.6850 -116.3022 217° Southwest 463 533 38,000  Level Salt Lake Center
Fri 04:30:54 PM 46.5833 -116.4164 218° Southwest 463 533 38,000  Level Salt Lake Center
Fri 04:31:55 PM 46.4806 -116.5292 217° Southwest 463 533 38,000 -49 Level Salt Lake Center
Fri 04:32:57 PM 46.3769 -116.6436 217° Southwest 463 533 37,900  Descending Salt Lake Center
Fri 04:33:59 PM 46.2739 -116.7544 217° Southwest 463 533 38,000 49 Climbing Salt Lake Center
Fri 04:35:00 PM 46.1711 -116.8647 217° Southwest 462 532 38,000  Level Salt Lake Center
Fri 04:36:02 PM 46.0672 -116.9786 217° Southwest 463 533 38,000  Level Salt Lake Center
Fri 04:37:04 PM 45.9542 -117.1008 217° Southwest 469 540 38,000  Level Salt Lake Center
Fri 04:38:06 PM 45.8506 -117.2119 217° Southwest 469 540 38,000  Level Salt Lake Center
Fri 04:39:09 PM 45.7350 -117.3356 217° Southwest 464 534 38,000  Level Seattle Center
Fri 04:40:10 PM 45.6422 -117.4333 216° Southwest 462 532 38,000  Level Seattle Center
Fri 04:41:11 PM 45.5203 -117.5622 217° Southwest 458 527 38,000  Level Seattle Center
Fri 04:42:12 PM 45.4172 -117.6703 216° Southwest 457 526 38,000  Level Seattle Center
Fri 04:43:13 PM 45.3144 -117.7781 216° Southwest 458 527 38,000  Level Seattle Center
Fri 04:44:14 PM 45.2108 -117.8847 216° Southwest 458 527 38,000  Level Seattle Center
Fri 04:45:15 PM 45.1128 -117.9825 215° Southwest 458 527 38,000  Level Seattle Center
Fri 04:46:16 PM 45.0100 -118.0889 216° Southwest 459 528 38,000  Level Seattle Center
Fri 04:47:17 PM 44.8997 -118.1997 215° Southwest 458 527 38,000  Level Seattle Center
Fri 04:48:18 PM 44.7917 -118.3075 215° Southwest 470 541 38,000  Level Seattle Center
Fri 04:49:19 PM 44.6864 -118.4150 216° Southwest 471 542 38,000  Level Seattle Center
Fri 04:50:20 PM 44.5794 -118.5200 215° Southwest 469 540 38,000  Level Seattle Center
Fri 04:51:21 PM 44.4742 -118.6242 215° Southwest 466 536 38,000  Level Seattle Center
Fri 04:52:22 PM 44.3692 -118.7294 216° Southwest 465 535 38,000  Level Seattle Center
Fri 04:53:23 PM 44.2617 -118.8353 215° Southwest 468 539 38,000  Level Seattle Center
Fri 04:54:24 PM 44.1544 -118.9397 215° Southwest 470 541 38,000  Level Seattle Center
Fri 04:55:25 PM 44.0258 -119.0667 215° Southwest 468 539 38,000  Level Seattle Center
Fri 04:56:26 PM 43.9172 -119.1714 215° Southwest 471 542 38,000  Level Seattle Center
Fri 04:57:27 PM 43.8081 -119.2758 215° Southwest 475 547 38,000  Level Seattle Center
Fri 04:58:28 PM 43.6983 -119.3811 215° Southwest 477 549 38,000  Level Seattle Center
Fri 04:59:29 PM 43.5836 -119.4789 212° Southwest 479 551 38,000  Level Seattle Center
Fri 05:00:30 PM 43.4628 -119.5614 206° Southwest 484 557 38,000  Level Seattle Center
Fri 05:01:31 PM 43.3417 -119.6408 206° Southwest 484 557 38,000  Level Seattle Center
Fri 05:02:32 PM 43.2286 -119.7147 205° Southwest 483 556 38,000  Level Seattle Center
Fri 05:03:33 PM 43.0850 -119.8106 206° Southwest 482 555 38,000  Level Seattle Center
Fri 05:04:35 PM 42.9608 -119.8894 205° Southwest 487 560 38,000  Level Seattle Center
Fri 05:05:36 PM 42.8364 -119.9697 205° Southwest 493 567 38,000  Level Seattle Center
Fri 05:06:37 PM 42.7139 -120.0517 206° Southwest 493 567 38,000  Level Seattle Center
Fri 05:07:38 PM 42.5917 -120.1311 206° Southwest 492 566 38,000  Level Seattle Center
Fri 05:08:39 PM 42.4656 -120.2094 205° Southwest 492 566 38,000  Level Seattle Center
Fri 05:09:40 PM 42.3419 -120.2900 206° Southwest 492 566 38,000  Level Seattle Center
Fri 05:10:41 PM 42.2200 -120.3694 206° Southwest 490 564 38,000  Level Seattle Center
Fri 05:11:42 PM 42.0989 -120.4481 206° Southwest 487 560 38,000  Level Seattle Center
Fri 05:12:43 PM 41.9786 -120.5247 205° Southwest 484 557 38,000  Level Seattle Center
Fri 05:13:44 PM 41.8556 -120.6025 205° Southwest 484 557 38,000  Level Seattle Center
Fri 05:19:28 PM 41.1707 -121.0342 205° Southwest 502 578 38,000  Level FlightAware ADS-B (KSAC)
Fri 05:20:55 PM 40.9354 -121.1803 205° Southwest 508 585 38,000  Level FlightAware ADS-B
Fri 05:21:29 PM 40.8628 -121.2251 205° Southwest 510 587 38,000  Level FlightAware ADS-B
Fri 05:22:00 PM 40.7980 -121.2647 205° Southwest 511 588 38,000  Level FlightAware ADS-B
Fri 05:22:30 PM 40.7322 -121.3056 205° Southwest 512 589 38,000  Level FlightAware ADS-B
Fri 05:23:02 PM 40.6648 -121.3463 205° Southwest 511 588 38,000  Level FlightAware ADS-B
Fri 05:23:33 PM 40.6414 -121.3608 205° Southwest 512 589 38,000  Level FlightAware ADS-B (KSAC)
Fri 05:24:05 PM 40.5279 -121.4305 205° Southwest 513 590 38,000  Level FlightAware ADS-B
Fri 05:24:38 PM 40.4576 -121.4725 205° Southwest 512 589 38,000  Level FlightAware ADS-B
Fri 05:25:08 PM 40.3944 -121.5115 205° Southwest 511 588 38,000  Level FlightAware ADS-B
Fri 05:25:47 PM 40.3082 -121.5635 205° Southwest 511 588 38,000  Level FlightAware ADS-B
Fri 05:26:17 PM 40.2647 -121.5896 205° Southwest 511 588 38,000  Level FlightAware ADS-B
Fri 05:26:50 PM 40.1746 -121.6440 205° Southwest 511 588 38,000  Level FlightAware ADS-B
Fri 05:27:38 PM 40.0882 -121.6971 205° Southwest 512 589 38,000  Level FlightAware ADS-B
Fri 05:28:22 PM 39.9774 -121.7633 205° Southwest 514 592 38,000  Level FlightAware ADS-B
Fri 05:28:53 PM 39.9089 -121.8047 205° Southwest 514 592 38,000  Level FlightAware ADS-B
Fri 05:29:23 PM 39.8438 -121.8434 205° Southwest 515 593 38,000  Level FlightAware ADS-B
Fri 05:30:07 PM 39.7547 -121.8964 205° Southwest 516 594 38,000  Level FlightAware ADS-B
Fri 05:30:49 PM 39.6861 -121.9364 204° Southwest 515 593 38,000  Level FlightAware ADS-B (KSAC)
Fri 05:31:29 PM 39.6023 -121.9866 204° Southwest 515 593 38,000  Level FlightAware ADS-B (KSAC)
Fri 05:32:29 PM 39.4687 -122.0660 204° Southwest 510 587 38,000 -540 Level FlightAware ADS-B (KSAC)
Fri 05:33:09 PM 39.3825 -122.1165 204° Southwest 490 564 37,100 -1,519 Descending FlightAware ADS-B (KSAC)
Fri 05:33:48 PM 39.3039 -122.1622 204° Southwest 477 549 36,000 -1,692 Descending FlightAware ADS-B (KSAC)
Fri 05:34:27 PM 39.2270 -122.2077 204° Southwest 466 536 34,900 -1,647 Descending FlightAware ADS-B (KSAC)
Fri 05:35:30 PM 39.1055 -122.2787 204° Southwest 448 516 33,200 -1,756 Descending FlightAware ADS-B (KSAC)
Fri 05:36:30 PM 38.9951 -122.3436 204° Southwest 433 498 31,300 -1,932 Descending FlightAware ADS-B (KSAC)
Fri 05:37:28 PM 38.8889 -122.4040 204° Southwest 421 484 29,400 -1,966 Descending FlightAware ADS-B (KSAC)
Fri 05:38:29 PM 38.7816 -122.4669 204° Southwest 409 471 27,400 -1,960 Descending FlightAware ADS-B (KSAC)
Fri 05:39:09 PM 38.7133 -122.5053 204° Southwest 403 464 26,100 -1,920 Descending FlightAware ADS-B (KSAC)
Fri 05:40:09 PM 38.6107 -122.5646 204° Southwest 393 452 24,200 -1,920 Descending FlightAware ADS-B (KSAC)
Fri 05:40:49 PM 38.5456 -122.6024 204° Southwest 389 448 22,900 -1,650 Descending FlightAware ADS-B (KSAC)
Fri 05:41:29 PM 38.4800 -122.6395 204° Southwest 371 427 22,000 -1,109 Descending FlightAware ADS-B (KSAC)
Fri 05:42:48 PM 38.3522 -122.7012 187° South 392 451 20,700 -1,200 Descending FlightAware ADS-B (KSAC)
Fri 05:43:09 PM 38.3129 -122.7021 175° South 398 458 20,000 -2,333 Descending FlightAware ADS-B (KSAC)
Fri 05:44:18 PM 38.1821 -122.6883 175° South 402 463 17,200 -2,280 Descending FlightAware ADS-B (KSAC)
Fri 05:44:49 PM 38.1451 -122.6844 175° South 403 464 16,200 -1,966 Descending FlightAware ADS-B (KSAC)
Fri 05:46:17 PM 37.9659 -122.6749 179° South 382 440 13,300 -1,984 Descending FlightAware ADS-B (KSAC)
Fri 05:46:56 PM 37.9153 -122.6704 158° South 379 436 12,000 -2,483 Descending FlightAware ADS-B (KSAC)
Fri 05:47:15 PM 37.8570 -122.6282 140° Southeast 377 434 10,900 -1,674 Descending FlightAware ADS-B
Fri 05:47:39 PM 37.8257 -122.5950 139° Southeast 376 433 10,800 -111 Descending FlightAware ADS-B
Fri 05:48:09 PM 37.7933 -122.5592 139° Southeast 375 432 10,800  Level FlightAware ADS-B
Fri 05:48:25 PM 37.7644 -122.5280 139° Southeast 377 434 10,800  Level FlightAware ADS-B
Fri 05:48:58 PM 37.7221 -122.4820 140° Southeast 376 433 10,800  Level FlightAware ADS-B
Fri 05:49:05 PM 37.7144 -122.4743 140° Southeast 345 397 10,800  Level FlightAware ADS-B
Fri 05:49:44 PM 37.6689 -122.4260 140° Southeast 319 367 10,800  Level FlightAware ADS-B
Fri 05:49:53 PM 37.6592 -122.4159 140° Southeast 294 338 10,800  Level FlightAware ADS-B
Fri 05:50:17 PM 37.6352 -122.3910 140° Southeast 288 331 10,800  Level FlightAware ADS-B
Fri 05:50:38 PM 37.6120 -122.3710 152° Southeast 285 328 10,800 -490 Level FlightAware ADS-B
Fri 05:51:06 PM 37.5788 -122.3520 155° Southeast 277 319 10,400 -1,171 Descending FlightAware ADS-B
Fri 05:51:19 PM 37.5639 -122.3432 155° Southeast 275 316 10,000 -2,000 Descending FlightAware ADS-B
Fri 05:51:21 PM 37.5607 -122.3410 155° Southeast 275 316 9,900 -1,765 Descending FlightAware ADS-B
Fri 05:51:36 PM 37.5431 -122.3310 155° Southeast 272 313 9,500 -1,742 Descending FlightAware ADS-B
Fri 05:51:52 PM 37.5251 -122.3200 155° Southeast 269 310 9,000 -1,714 Descending FlightAware ADS-B
Fri 05:52:11 PM 37.5040 -122.3080 155° Southeast 265 305 8,500 -1,500 Descending FlightAware ADS-B
Fri 05:52:12 PM 37.5040 -122.3082 156° South 264 304 8,500 -1,875 Level FlightAware ADS-B
Fri 05:52:27 PM 37.4864 -122.2980 156° South 261 300 8,000 -2,000 Descending FlightAware ADS-B
Fri 05:52:42 PM 37.4695 -122.2890 155° Southeast 259 298 7,500 -1,800 Descending FlightAware ADS-B
Fri 05:52:47 PM 37.4642 -122.2850 150° Southeast 258 297 7,400 -1,333 Descending FlightAware ADS-B
Fri 05:52:51 PM 37.4604 -122.2820 144° Southeast 256 295 7,300 -1,500 Descending FlightAware ADS-B
Fri 05:52:55 PM 37.4571 -122.2780 136° Southeast 254 292 7,200 -1,714 Descending FlightAware ADS-B
Fri 05:52:58 PM 37.4545 -122.2750 130° Southeast 250 288 7,100 -1,714 Descending FlightAware ADS-B
Fri 05:53:02 PM 37.4518 -122.2700 125° Southeast 247 284 7,000 -1,500 Descending FlightAware ADS-B
Fri 05:53:14 PM 37.4451 -122.2550 117° Southeast 238 274 6,700 -1,714 Descending FlightAware ADS-B
Fri 05:53:30 PM 37.4375 -122.2360 116° Southeast 234 269 6,200 -2,000 Descending FlightAware ADS-B
Fri 05:53:35 PM 37.4353 -122.2300 111° Southeast 231 266 6,000 -1,333 Descending FlightAware ADS-B
Fri 05:53:39 PM 37.4344 -122.2260 105° East 229 264 6,000 -750 Level FlightAware ADS-B
Fri 05:53:43 PM 37.4338 -122.2190 97° East 225 259 5,900 -1,714 Descending FlightAware ADS-B
Fri 05:53:46 PM 37.4337 -122.2150 90° East 220 253 5,800 -857 Descending FlightAware ADS-B
Fri 05:53:50 PM 37.4339 -122.2120 87° East 216 249 5,800 -783 Level FlightAware ADS-B
Fri 05:54:09 PM 37.4352 -122.1890 88° East 205 236 5,500 -1,000 Descending FlightAware ADS-B
Fri 05:54:14 PM 37.4351 -122.1898 88° East 205 236 5,400 -1,600 Descending FlightAware ADS-B (KMIC)
Fri 05:54:24 PM 37.4355 -122.1690 89° East 204 235 5,100 -1,429 Descending FlightAware ADS-B
Fri 05:54:35 PM 37.4357 -122.1570 88° East 203 234 4,900 -1,286 Descending FlightAware ADS-B
Fri 05:54:38 PM 37.4360 -122.1530 84° East 202 232 4,800 -1,000 Descending FlightAware ADS-B
Fri 05:54:41 PM 37.4364 -122.1490 81° East 201 231 4,800  Level FlightAware ADS-B
Fri 05:54:46 PM 37.4377 -122.1450 69° East 200 230 4,800  Level FlightAware ADS-B
Fri 05:54:49 PM 37.4389 -122.1420 62° Northeast 198 228 4,800  Level FlightAware ADS-B
Fri 05:54:53 PM 37.4410 -122.1380 52° Northeast 196 226 4,800  Level FlightAware ADS-B
Fri 05:54:56 PM 37.4434 -122.1350 42° Northeast 194 223 4,800  Level FlightAware ADS-B
Fri 05:55:00 PM 37.4458 -122.1330 35° Northeast 193 222 4,800  Level FlightAware ADS-B
Fri 05:55:04 PM 37.4495 -122.1300 22° Northeast 193 222 4,800 -667 Level FlightAware ADS-B
Fri 05:55:09 PM 37.4533 -122.1290 12° North 191 220 4,700 -750 Descending FlightAware ADS-B
Fri 05:55:12 PM 37.4565 -122.1280 North 189 217 4,700  Level FlightAware ADS-B
Fri 05:55:16 PM 37.4593 -122.1280 358° North 187 215 4,700  Level FlightAware ADS-B
Fri 05:55:19 PM 37.4622 -122.1290 349° North 183 211 4,700  Level FlightAware ADS-B
Fri 05:55:23 PM 37.4654 -122.1300 346° North 181 208 4,700 -667 Level FlightAware ADS-B
Fri 05:55:28 PM 37.4695 -122.1320 343° North 177 204 4,600 -545 Descending FlightAware ADS-B
Fri 05:55:34 PM 37.4742 -122.1334 343° North 174 200 4,600 -600 Level FlightAware ADS-B
Fri 05:55:38 PM 37.4771 -122.1350 343° North 172 198 4,500 -1,200 Descending FlightAware ADS-B
Fri 05:55:49 PM 37.4858 -122.1380 344° North 170 196 4,300 -1,111 Descending FlightAware ADS-B
Fri 05:56:05 PM 37.4974 -122.1420 344° North 171 197 4,000 -1,364 Descending FlightAware ADS-B
Fri 05:56:11 PM 37.4952 -122.1414 344° North 170 196 3,800 -1,125 Descending FlightAware ADS-B
Fri 05:56:21 PM 37.5097 -122.1460 345° North 168 193 3,700 -1,091 Descending FlightAware ADS-B
Fri 05:56:33 PM 37.5188 -122.1500 343° North 165 190 3,400 -1,385 Descending FlightAware ADS-B
Fri 05:56:34 PM 37.5188 -122.1496 343° North 165 190 3,400 -1,500 Level FlightAware ADS-B
Fri 05:56:37 PM 37.5213 -122.1510 338° Northwest 162 186 3,300 -1,500 Descending FlightAware ADS-B
Fri 05:56:42 PM 37.5243 -122.1530 321° Northwest 162 186 3,200 -600 Descending FlightAware ADS-B
Fri 05:56:47 PM 37.5271 -122.1570 309° West 161 185 3,200 -667 Level FlightAware ADS-B
Fri 05:56:51 PM 37.5287 -122.1600 301° West 159 183 3,100 -923 Descending FlightAware ADS-B
Fri 05:57:00 PM 37.5316 -122.1670 296° West 160 184 3,000 -706 Descending FlightAware ADS-B
Fri 05:57:08 PM 37.5345 -122.1750 296° West 161 185 2,900 -1,000 Descending FlightAware ADS-B
Fri 05:57:24 PM 37.5399 -122.1880 298° West 158 182 2,600 -923 Descending FlightAware ADS-B
Fri 05:57:34 PM 37.5435 -122.1960 298° West 156 180 2,500 -720 Descending FlightAware ADS-B
Fri 05:57:49 PM 37.5486 -122.2080 298° West 158 182 2,300 -800 Descending FlightAware ADS-B
Fri 05:58:04 PM 37.5538 -122.2200 298° West 159 183 2,100 -774 Descending FlightAware ADS-B
Fri 05:58:20 PM 37.5593 -122.2340 298° West 161 185 1,900 -828 Descending FlightAware ADS-B
Fri 05:58:33 PM 37.5637 -122.2440 298° West 161 185 1,700 -857 Descending FlightAware ADS-B
Fri 05:58:41 PM 37.5659 -122.2495 298° West 161 185 1,600 -857 Descending FlightAware ADS-B
Fri 05:58:54 PM 37.5712 -122.2620 298° West 159 183 1,400 -783 Descending FlightAware ADS-B
Fri 05:59:04 PM 37.5746 -122.2700 298° West 157 181 1,300 -720 Descending FlightAware ADS-B
Fri 05:59:19 PM 37.5796 -122.2820 298° West 149 171 1,100 -800 Descending FlightAware ADS-B
Fri 05:59:34 PM 37.5845 -122.2930 298° West 147 169 900 -727 Descending FlightAware ADS-B
Fri 05:59:52 PM 37.5902 -122.3070 297° West 145 167 700 -686 Descending FlightAware ADS-B
Fri 06:00:09 PM 37.5955 -122.3200 298° West 144 166 500 -706 Descending FlightAware ADS-B
Fri 06:00:26 PM 37.6007 -122.3320 298° West 140 161 300 -750 Descending FlightAware ADS-B
Fri 06:00:41 PM 37.6052 -122.3430 298° West 139 160 100 -800 Descending FlightAware ADS-B

Login

Don't have an account? Register now (free) for customized features, flight alerts, and more!